Time;durP1;ratioP1;P1;durP2;ratioP2;P2;SDS_P1;SDS_P2;PMS_P1;PMS_P2;Temp;Humidity;BMP_temperature;BMP_pressure;BME280_temperature;BME280_humidity;BME280_pressure;Samples;Min_cycle;Max_cycle;Signal;HPM_P1;HPM_P2
2022/03/29 00:01:19;;;;;;;2.92;1.85;;;8.40;73.30;;;;;;5079098;28;20046;-68
2022/03/29 00:03:44;;;;;;;3.55;2.00;;;8.30;73.30;;;;;;5114438;28;20040;-68
2022/03/29 00:06:10;;;;;;;2.75;1.67;;;8.30;73.50;;;;;;5096269;28;20481;-68
2022/03/29 00:08:36;;;;;;;2.70;1.35;;;8.20;73.50;;;;;;5114414;28;20038;-68
2022/03/29 00:11:02;;;;;;;3.50;1.77;;;8.20;73.60;;;;;;5114652;28;20400;-68
2022/03/29 00:13:27;;;;;;;2.60;1.55;;;8.20;73.70;;;;;;5114837;28;20035;-68
2022/03/29 00:15:53;;;;;;;3.05;1.50;;;8.10;73.80;;;;;;5114738;28;20061;-68
2022/03/29 00:18:19;;;;;;;3.80;1.80;;;8.10;73.90;;;;;;5114500;28;20058;-68
2022/03/29 00:20:44;;;;;;;2.65;1.55;;;8.10;74.00;;;;;;5095041;28;20094;-68
2022/03/29 00:23:10;;;;;;;3.17;1.90;;;8.00;74.10;;;;;;5114645;28;20071;-68
2022/03/29 00:25:36;;;;;;;3.38;2.00;;;7.90;74.10;;;;;;5113725;28;20089;-68
2022/03/29 00:28:02;;;;;;;3.47;1.83;;;7.90;74.90;;;;;;5113510;28;20046;-68
2022/03/29 00:30:28;;;;;;;3.38;1.85;;;7.80;74.30;;;;;;5096164;28;20054;-68
2022/03/29 00:32:53;;;;;;;3.15;1.90;;;7.70;74.40;;;;;;5114474;28;20180;-68
2022/03/29 00:35:20;;;;;;;4.10;2.00;;;7.70;74.50;;;;;;5114111;28;20040;-68
2022/03/29 00:37:47;;;;;;;3.47;1.73;;;7.70;74.50;;;;;;5113810;28;20035;-68
2022/03/29 00:40:15;;;;;;;3.60;1.63;;;7.70;74.60;;;;;;5114538;28;20044;-68
2022/03/29 00:42:41;;;;;;;2.13;1.33;;;7.60;74.60;;;;;;5077040;28;20135;-68
2022/03/29 00:45:08;;;;;;;3.20;1.58;;;7.70;74.80;;;;;;5114201;28;20048;-68
2022/03/29 00:47:33;;;;;;;3.03;1.80;;;7.60;74.80;;;;;;5095285;28;20573;-68
2022/03/29 00:49:59;;;;;;;2.58;1.70;;;7.60;74.80;;;;;;5114137;28;20075;-68
2022/03/29 00:52:25;;;;;;;2.97;1.55;;;7.60;75.00;;;;;;5113839;28;20527;-68
2022/03/29 00:54:51;;;;;;;2.90;1.75;;;7.50;75.00;;;;;;5113496;28;20039;-68
2022/03/29 00:57:18;;;;;;;3.00;1.58;;;7.50;75.60;;;;;;5114397;28;20042;-68
2022/03/29 00:59:46;;;;;;;2.47;1.60;;;7.50;75.10;;;;;;5114231;28;20031;-68
2022/03/29 01:02:12;;;;;;;2.78;1.40;;;7.60;75.10;;;;;;5095444;28;20042;-68
2022/03/29 01:04:38;;;;;;;2.90;1.67;;;7.60;75.10;;;;;;5114279;28;20035;-68
2022/03/29 01:07:05;;;;;;;3.33;1.88;;;7.50;75.10;;;;;;5113553;28;20044;-68
2022/03/29 01:09:32;;;;;;;3.88;2.03;;;7.50;75.20;;;;;;5113539;28;20493;-68
2022/03/29 01:11:58;;;;;;;3.85;1.80;;;7.50;75.10;;;;;;5113431;28;20058;-68
2022/03/29 01:14:26;;;;;;;2.78;1.70;;;7.60;75.10;;;;;;5094836;28;20056;-68
2022/03/29 01:19:35;;;;;;;3.53;1.75;;;7.50;75.10;;;;;;5113491;28;20072;-68
2022/03/29 01:22:03;;;;;;;3.00;1.73;;;7.50;75.10;;;;;;5095262;28;20058;-68
2022/03/29 01:24:29;;;;;;;3.28;1.85;;;7.50;75.10;;;;;;5113332;28;20043;-68
2022/03/29 01:26:58;;;;;;;3.67;1.65;;;7.50;75.20;;;;;;5113793;28;20055;-68
2022/03/29 01:29:24;;;;;;;3.28;1.98;;;7.50;75.10;;;;;;5113407;28;20475;-68
2022/03/29 01:31:50;;;;;;;4.10;2.10;;;7.50;75.10;;;;;;5095440;28;20043;-68
2022/03/29 01:34:18;;;;;;;2.65;1.50;;;7.60;75.20;;;;;;5113327;28;20047;-68
2022/03/29 01:36:43;;;;;;;4.22;2.10;;;7.60;75.30;;;;;;5113246;28;20457;-68
2022/03/29 01:39:09;;;;;;;3.22;1.70;;;7.50;75.30;;;;;;5093800;28;20036;-68
2022/03/29 01:41:35;;;;;;;3.08;1.83;;;7.50;75.30;;;;;;5113096;28;20089;-68
2022/03/29 01:44:01;;;;;;;2.53;1.50;;;7.50;75.50;;;;;;5112958;28;20043;-68
2022/03/29 01:46:27;;;;;;;3.35;1.90;;;7.50;75.50;;;;;;5112954;28;20408;-68
2022/03/29 01:48:53;;;;;;;3.05;1.42;;;7.50;75.60;;;;;;5112978;28;20036;-68
2022/03/29 01:51:19;;;;;;;3.42;1.70;;;7.50;75.70;;;;;;5113044;28;20039;-68
2022/03/29 01:53:51;;;;;;;3.40;1.92;;;7.50;75.70;;;;;;5112652;28;20059;-68
2022/03/29 01:56:17;;;;;;;4.30;1.80;;;7.40;75.70;;;;;;5113283;28;20047;-68
2022/03/29 01:58:43;;;;;;;2.70;1.63;;;7.50;75.90;;;;;;5112919;28;20070;-68
2022/03/29 02:01:08;;;;;;;4.28;1.77;;;7.40;75.80;;;;;;5113228;28;20118;-68
2022/03/29 02:03:34;;;;;;;3.40;1.80;;;7.40;75.80;;;;;;5112784;28;20032;-68
2022/03/29 02:06:00;;;;;;;2.90;1.50;;;7.50;75.90;;;;;;5095021;28;20434;-68
2022/03/29 02:08:26;;;;;;;2.90;1.38;;;7.40;75.90;;;;;;5113083;28;20541;-68
2022/03/29 02:10:52;;;;;;;2.92;1.55;;;7.40;75.90;;;;;;5112679;28;20062;-68
2022/03/29 02:13:19;;;;;;;3.22;1.60;;;7.50;76.00;;;;;;5112745;28;20039;-68
2022/03/29 02:15:45;;;;;;;2.20;1.40;;;7.40;76.00;;;;;;5112752;28;20485;-68
2022/03/29 02:18:11;;;;;;;2.38;1.45;;;7.40;76.10;;;;;;5112401;28;20032;-68
2022/03/29 02:20:37;;;;;;;4.13;1.50;;;7.40;76.20;;;;;;5092556;28;20071;-68
2022/03/29 02:23:06;;;;;;;2.47;1.38;;;7.40;76.30;;;;;;5112718;28;20036;-68
2022/03/29 02:25:33;;;;;;;3.08;1.42;;;7.40;76.40;;;;;;5112344;28;20039;-68
2022/03/29 02:27:59;;;;;;;3.22;1.67;;;7.40;76.40;;;;;;5112785;28;20071;-68
2022/03/29 02:30:25;;;;;;;2.33;1.48;;;7.40;76.50;;;;;;5093244;28;20100;-69
2022/03/29 02:32:51;;;;;;;4.47;1.90;;;7.30;76.50;;;;;;5112291;28;20048;-68
2022/03/29 02:35:17;;;;;;;2.60;1.58;;;7.30;76.60;;;;;;5112199;28;20055;-70
2022/03/29 02:37:43;;;;;;;3.35;1.60;;;7.30;76.60;;;;;;5112547;28;20040;-69
2022/03/29 02:40:11;;;;;;;2.88;1.50;;;7.30;76.70;;;;;;5112793;28;20062;-69
2022/03/29 02:42:46;;;;;;;3.88;1.88;;;7.30;77.40;;;;;;5112118;28;20157;-69
2022/03/29 02:45:15;;;;;;;4.00;2.20;;;7.30;76.80;;;;;;5112693;28;20044;-69
2022/03/29 02:47:43;;;;;;;3.35;1.70;;;7.20;76.80;;;;;;5093929;28;20040;-69
2022/03/29 02:50:09;;;;;;;3.05;1.35;;;7.20;76.90;;;;;;5113774;28;20047;-68
2022/03/29 02:52:50;;;;;;;3.33;1.50;;;7.20;77.00;;;;;;5116286;28;20054;-68
2022/03/29 02:55:18;;;;;;;2.92;1.60;;;7.20;77.20;;;;;;5097948;28;20047;-69
2022/03/29 02:57:45;;;;;;;2.45;1.40;;;7.00;77.10;;;;;;5097295;28;20123;-69
2022/03/29 03:00:15;;;;;;;3.13;1.80;;;7.10;77.20;;;;;;5115715;28;20512;-69
2022/03/29 03:02:44;;;;;;;2.78;1.48;;;7.10;77.20;;;;;;5115746;28;20044;-69
2022/03/29 03:05:10;;;;;;;3.05;1.65;;;7.10;77.30;;;;;;5115536;28;20040;-69
2022/03/29 03:07:38;;;;;;;2.78;1.55;;;7.10;77.40;;;;;;5115937;28;20054;-69
2022/03/29 03:10:05;;;;;;;2.83;1.40;;;7.00;77.40;;;;;;5115181;28;20043;-69
2022/03/29 03:12:39;;;;;;;3.10;1.50;;;7.00;77.50;;;;;;5115514;28;20074;-69
2022/03/29 03:15:07;;;;;;;2.30;1.17;;;7.00;77.70;;;;;;5115106;28;20430;-69
2022/03/29 03:17:33;;;;;;;3.08;1.58;;;7.00;77.70;;;;;;5115882;28;20040;-69
2022/03/29 03:19:58;;;;;;;3.00;1.40;;;7.00;77.70;;;;;;5115585;28;20039;-69
2022/03/29 03:22:25;;;;;;;2.92;1.48;;;7.00;77.80;;;;;;5096902;28;20074;-69
2022/03/29 03:24:51;;;;;;;2.83;1.55;;;6.90;77.80;;;;;;5115717;28;20071;-69
2022/03/29 03:27:18;;;;;;;3.00;1.40;;;7.00;77.80;;;;;;5095752;28;20051;-69
2022/03/29 03:29:44;;;;;;;3.38;1.52;;;6.90;77.90;;;;;;5115353;28;20039;-69
2022/03/29 03:32:10;;;;;;;3.05;1.60;;;6.90;77.90;;;;;;5115888;28;20089;-69
2022/03/29 03:34:36;;;;;;;3.28;1.60;;;6.90;78.10;;;;;;5095969;28;20474;-69
2022/03/29 03:37:03;;;;;;;2.85;1.40;;;6.90;78.10;;;;;;5096655;28;20050;-69
2022/03/29 03:39:30;;;;;;;2.75;1.60;;;6.90;78.10;;;;;;5115039;28;20469;-67
2022/03/29 03:41:56;;;;;;;2.47;1.23;;;7.00;78.10;;;;;;5115039;28;20064;-69
2022/03/29 03:44:22;;;;;;;4.97;1.80;;;6.90;78.00;;;;;;5097149;28;20496;-69
2022/03/29 03:46:48;;;;;;;2.53;1.40;;;7.00;78.20;;;;;;5115359;28;20043;-69
2022/03/29 03:49:14;;;;;;;2.38;1.40;;;6.90;78.10;;;;;;5114960;28;20043;-68
2022/03/29 03:51:40;;;;;;;3.67;1.70;;;7.00;78.30;;;;;;5114931;28;20053;-69
2022/03/29 03:54:06;;;;;;;2.78;1.45;;;6.90;78.30;;;;;;5115120;28;20047;-69
2022/03/29 03:56:32;;;;;;;3.05;1.67;;;6.90;78.30;;;;;;5096318;28;20378;-68
2022/03/29 03:58:58;;;;;;;2.40;1.40;;;6.90;78.40;;;;;;5096355;28;20100;-69
2022/03/29 04:01:24;;;;;;;3.50;1.70;;;6.90;78.40;;;;;;5114996;28;20169;-68
2022/03/29 04:03:49;;;;;;;2.83;1.30;;;6.90;78.50;;;;;;5115197;28;20039;-68
2022/03/29 04:06:15;;;;;;;2.20;1.20;;;6.90;78.50;;;;;;5094481;28;20072;-68
2022/03/29 04:08:41;;;;;;;3.17;1.60;;;6.90;78.50;;;;;;5114782;28;20066;-68
2022/03/29 04:11:07;;;;;;;1.73;1.00;;;7.00;78.60;;;;;;5114601;28;20112;-68
2022/03/29 04:13:34;;;;;;;2.45;1.33;;;7.00;78.60;;;;;;5096284;28;20128;-68
2022/03/29 04:16:01;;;;;;;2.60;1.23;;;7.00;78.70;;;;;;5096518;28;20499;-68
2022/03/29 04:18:27;;;;;;;4.15;1.80;;;6.90;78.60;;;;;;5115146;28;20075;-68
2022/03/29 04:20:53;;;;;;;3.25;1.70;;;6.90;78.70;;;;;;5114826;28;20104;-69
2022/03/29 04:23:19;;;;;;;3.35;1.60;;;7.00;78.80;;;;;;5115259;28;20031;-68
2022/03/29 04:25:45;;;;;;;2.97;1.40;;;6.90;79.20;;;;;;5115057;28;20039;-69
2022/03/29 04:28:11;;;;;;;2.30;1.27;;;6.90;78.80;;;;;;5114693;28;20039;-68
2022/03/29 04:30:37;;;;;;;3.15;1.52;;;6.90;78.80;;;;;;5096543;28;20050;-69
2022/03/29 04:33:03;;;;;;;3.15;1.42;;;7.00;78.90;;;;;;5110506;28;20035;-69
2022/03/29 04:35:29;;;;;;;1.90;1.08;;;7.00;78.90;;;;;;5114403;28;20040;-69
2022/03/29 04:37:55;;;;;;;3.28;1.40;;;7.00;78.90;;;;;;5096166;28;20617;-68
2022/03/29 04:40:21;;;;;;;2.13;1.30;;;7.00;78.90;;;;;;5114492;28;20047;-69
2022/03/29 04:42:49;;;;;;;3.95;1.55;;;7.00;79.00;;;;;;5079152;28;20442;-69
2022/03/29 04:45:16;;;;;;;2.72;1.35;;;7.00;79.00;;;;;;5095977;28;20497;-68
2022/03/29 04:47:43;;;;;;;3.25;1.50;;;7.10;79.00;;;;;;5094895;28;20054;-68
2022/03/29 04:50:10;;;;;;;2.47;1.30;;;7.10;79.00;;;;;;5079134;28;20127;-68
2022/03/29 04:52:37;;;;;;;2.17;1.15;;;7.10;79.00;;;;;;5114283;28;20047;-68
2022/03/29 04:55:05;;;;;;;2.38;1.35;;;7.10;79.00;;;;;;5113884;28;20109;-68
2022/03/29 04:57:30;;;;;;;2.97;1.50;;;7.10;79.10;;;;;;5113928;28;20071;-68
2022/03/29 04:59:56;;;;;;;2.13;1.02;;;7.10;79.10;;;;;;5113899;28;20100;-69
2022/03/29 05:02:23;;;;;;;2.03;1.10;;;7.10;79.10;;;;;;5114470;28;20362;-68
2022/03/29 05:04:51;;;;;;;2.60;1.38;;;7.10;79.10;;;;;;5113923;28;20039;-68
2022/03/29 05:07:17;;;;;;;2.78;1.48;;;7.10;79.10;;;;;;5096339;28;20582;-68
2022/03/29 05:09:43;;;;;;;4.38;1.60;;;7.20;79.20;;;;;;5113778;28;20035;-68
2022/03/29 05:12:09;;;;;;;3.40;1.58;;;7.20;79.30;;;;;;5113508;28;20054;-68
2022/03/29 05:14:36;;;;;;;5.15;2.13;;;7.10;79.20;;;;;;5113395;28;20071;-69
2022/03/29 05:17:02;;;;;;;2.80;1.48;;;7.20;79.40;;;;;;5096599;28;20423;-68
2022/03/29 05:19:28;;;;;;;2.88;1.48;;;7.20;79.40;;;;;;5113809;28;20043;-67
2022/03/29 05:21:54;;;;;;;3.42;1.45;;;7.10;79.30;;;;;;5078925;28;20093;-67
2022/03/29 05:24:19;;;;;;;4.28;1.55;;;7.10;79.40;;;;;;5113550;28;20040;-67
2022/03/29 05:26:45;;;;;;;4.43;1.88;;;7.10;79.40;;;;;;5113683;28;20036;-68
2022/03/29 05:29:12;;;;;;;2.42;1.40;;;7.10;80.10;;;;;;5113622;28;20039;-68
2022/03/29 05:31:38;;;;;;;4.32;2.08;;;7.10;79.50;;;;;;5113465;28;20032;-68
2022/03/29 05:34:04;;;;;;;4.43;1.98;;;7.10;79.60;;;;;;5113331;28;20067;-68
2022/03/29 05:36:30;;;;;;;3.42;1.73;;;7.10;79.70;;;;;;5113520;28;20036;-67
2022/03/29 05:38:57;;;;;;;3.65;1.75;;;7.10;79.80;;;;;;5113402;28;20469;-66
2022/03/29 05:41:23;;;;;;;3.60;1.80;;;7.10;79.80;;;;;;5113362;28;20047;-68
2022/03/29 05:43:49;;;;;;;3.67;1.70;;;7.00;79.80;;;;;;5113409;28;20036;-68
2022/03/29 05:48:57;;;;;;;3.22;1.73;;;7.00;80.60;;;;;;5113076;28;20070;-68
2022/03/29 05:51:24;;;;;;;4.38;1.85;;;7.00;80.00;;;;;;5113064;28;20067;-68
2022/03/29 05:53:52;;;;;;;3.20;1.67;;;7.00;80.10;;;;;;5113138;28;20450;-68
2022/03/29 05:56:18;;;;;;;3.58;1.80;;;7.00;80.20;;;;;;5113753;28;20093;-68
2022/03/29 05:58:44;;;;;;;4.18;1.75;;;7.00;80.20;;;;;;5113158;28;20040;-68
2022/03/29 06:01:10;;;;;;;3.47;1.60;;;7.00;80.20;;;;;;5113144;28;20108;-68
2022/03/29 06:03:36;;;;;;;4.28;1.88;;;7.00;80.20;;;;;;5113073;28;20036;-68
2022/03/29 06:06:02;;;;;;;3.30;1.70;;;7.00;80.20;;;;;;5112705;28;20460;-68
2022/03/29 06:08:29;;;;;;;4.03;1.98;;;7.10;80.30;;;;;;5112929;28;20119;-68
2022/03/29 06:10:56;;;;;;;2.67;1.48;;;7.10;80.20;;;;;;5113279;28;20389;-68
2022/03/29 06:13:21;;;;;;;3.65;1.75;;;7.10;80.30;;;;;;5113101;28;20079;-68
2022/03/29 06:15:47;;;;;;;2.85;1.42;;;7.00;80.20;;;;;;5077471;28;20047;-69
2022/03/29 06:18:13;;;;;;;3.58;1.65;;;7.10;80.30;;;;;;5112700;28;20370;-68
2022/03/29 06:20:39;;;;;;;2.85;1.60;;;7.10;80.30;;;;;;5112938;28;20043;-68
2022/03/29 06:23:05;;;;;;;3.13;1.50;;;7.20;80.30;;;;;;5112164;28;20039;-68
2022/03/29 06:25:34;;;;;;;3.70;1.60;;;7.20;80.30;;;;;;5111422;28;20044;-68
2022/03/29 06:28:00;;;;;;;2.92;1.50;;;7.20;80.30;;;;;;5112849;28;20123;-68
2022/03/29 06:30:26;;;;;;;4.28;1.48;;;7.20;80.40;;;;;;5095170;28;20162;-68
2022/03/29 06:32:53;;;;;;;4.75;1.80;;;7.20;80.40;;;;;;5112927;28;20126;-68
2022/03/29 06:35:22;;;;;;;3.33;1.60;;;7.10;80.40;;;;;;5112992;28;20050;-68
2022/03/29 06:37:51;;;;;;;2.88;1.27;;;7.20;80.50;;;;;;5112565;28;20473;-68
2022/03/29 06:40:17;;;;;;;3.30;1.40;;;7.20;80.50;;;;;;5095252;28;20446;-68
2022/03/29 06:42:43;;;;;;;3.05;1.60;;;7.10;80.50;;;;;;5112533;28;20130;-68
2022/03/29 06:45:10;;;;;;;3.25;1.55;;;7.20;80.50;;;;;;5112783;28;20047;-68
2022/03/29 06:47:36;;;;;;;3.35;1.50;;;7.20;80.50;;;;;;5094263;28;20074;-68
2022/03/29 06:50:04;;;;;;;2.97;1.50;;;7.20;80.50;;;;;;5112821;28;20036;-68
2022/03/29 06:52:39;;;;;;;3.60;1.75;;;7.20;80.50;;;;;;5093789;28;20040;-68
2022/03/29 06:55:07;;;;;;;2.40;1.25;;;7.30;80.60;;;;;;5112862;28;20447;-68
2022/03/29 06:57:32;;;;;;;3.40;1.60;;;7.20;80.40;;;;;;5112303;28;20048;-68
2022/03/29 06:59:58;;;;;;;3.63;1.92;;;7.20;80.60;;;;;;5093786;28;20047;-68
2022/03/29 07:02:24;;;;;;;3.88;1.90;;;7.20;80.60;;;;;;5112863;28;20469;-68
2022/03/29 07:04:51;;;;;;;3.25;1.67;;;7.20;80.60;;;;;;5112683;28;20529;-68
2022/03/29 07:07:16;;;;;;;3.47;1.60;;;7.20;80.60;;;;;;5112328;28;20122;-68
2022/03/29 07:12:25;;;;;;;2.97;1.67;;;7.20;80.60;;;;;;5112062;28;20056;-68
2022/03/29 07:14:51;;;;;;;4.80;1.85;;;7.20;80.70;;;;;;5112330;28;20127;-68
2022/03/29 07:17:18;;;;;;;2.63;1.30;;;7.20;80.80;;;;;;5112490;28;20444;-68
2022/03/29 07:19:46;;;;;;;2.78;1.30;;;7.20;80.80;;;;;;5112475;28;20036;-68
2022/03/29 07:22:11;;;;;;;3.10;1.55;;;7.20;80.80;;;;;;5111931;28;20051;-68
2022/03/29 07:24:38;;;;;;;2.78;1.40;;;7.10;80.70;;;;;;5091906;28;20048;-68
2022/03/29 07:27:04;;;;;;;3.88;1.50;;;7.20;80.80;;;;;;5093979;28;20046;-68
2022/03/29 07:29:30;;;;;;;4.47;1.85;;;7.30;80.80;;;;;;5112077;28;20036;-68
2022/03/29 07:31:56;;;;;;;3.42;1.38;;;7.30;80.80;;;;;;5112532;28;20127;-68
2022/03/29 07:34:22;;;;;;;4.20;1.70;;;7.30;80.80;;;;;;5112159;28;20123;-69
2022/03/29 07:36:48;;;;;;;2.33;1.30;;;7.20;80.70;;;;;;5114184;28;20047;-68
2022/03/29 07:39:14;;;;;;;3.22;1.50;;;7.30;80.80;;;;;;5097487;28;20036;-68
2022/03/29 07:41:40;;;;;;;3.90;1.83;;;7.30;80.80;;;;;;5115657;28;20040;-68
2022/03/29 07:44:06;;;;;;;3.30;1.70;;;7.30;80.80;;;;;;5115253;28;20043;-68
2022/03/29 07:46:32;;;;;;;4.78;2.20;;;7.30;80.90;;;;;;5115348;28;20104;-68
2022/03/29 07:48:58;;;;;;;3.72;1.70;;;7.30;80.80;;;;;;5115237;28;20043;-68
2022/03/29 07:51:24;;;;;;;3.08;1.80;;;7.30;80.80;;;;;;5115802;28;20043;-68
2022/03/29 07:53:50;;;;;;;5.03;1.90;;;7.30;80.90;;;;;;5114938;28;20040;-68
2022/03/29 07:56:15;;;;;;;3.67;1.75;;;7.30;80.80;;;;;;5115053;28;20036;-69
2022/03/29 07:58:41;;;;;;;3.50;1.50;;;7.40;80.70;;;;;;5115012;28;20036;-69
2022/03/29 08:01:08;;;;;;;4.07;2.08;;;7.50;80.70;;;;;;5115333;28;20036;-69
2022/03/29 08:03:34;;;;;;;4.30;2.08;;;7.40;80.60;;;;;;5115263;28;20063;-69
2022/03/29 08:06:01;;;;;;;4.03;1.85;;;7.50;80.50;;;;;;5078386;28;20502;-69
2022/03/29 08:08:28;;;;;;;3.63;1.80;;;7.50;80.30;;;;;;5114955;28;20051;-69
2022/03/29 08:10:55;;;;;;;4.45;1.75;;;7.50;80.20;;;;;;5115006;28;20036;-67
2022/03/29 08:13:22;;;;;;;3.45;1.75;;;7.50;80.20;;;;;;5114757;28;20059;-69
2022/03/29 08:15:50;;;;;;;4.65;2.03;;;7.60;80.20;;;;;;5115289;28;20040;-69
2022/03/29 08:18:16;;;;;;;5.93;2.35;;;7.60;80.20;;;;;;5114680;28;20042;-69
2022/03/29 08:20:42;;;;;;;4.78;2.38;;;7.70;80.10;;;;;;5114950;28;20051;-69
2022/03/29 08:23:09;;;;;;;4.80;2.42;;;7.70;80.10;;;;;;5114983;28;20048;-69
2022/03/29 08:25:37;;;;;;;4.25;2.30;;;7.70;80.00;;;;;;5114521;28;20047;-69
2022/03/29 08:28:04;;;;;;;4.88;2.15;;;7.70;79.90;;;;;;5095440;28;20444;-69
2022/03/29 08:30:30;;;;;;;4.82;2.20;;;7.70;79.90;;;;;;5115164;28;20469;-69
2022/03/29 08:32:57;;;;;;;3.90;1.85;;;7.70;79.90;;;;;;5114913;28;20051;-69
2022/03/29 08:35:24;;;;;;;4.75;2.45;;;7.80;79.80;;;;;;5096105;28;20039;-69
2022/03/29 08:37:50;;;;;;;5.05;2.22;;;7.80;79.60;;;;;;5114676;28;20500;-67
2022/03/29 08:40:21;;;;;;;4.57;2.50;;;7.90;79.60;;;;;;5114419;28;20349;-68
2022/03/29 08:42:54;;;;;;;5.45;2.45;;;8.00;79.50;;;;;;5094625;28;20392;-68
2022/03/29 08:45:25;;;;;;;5.15;2.50;;;8.00;79.40;;;;;;5114742;28;20493;-68
2022/03/29 08:47:54;;;;;;;5.63;2.70;;;8.10;79.50;;;;;;5093754;28;20040;-68
2022/03/29 08:50:20;;;;;;;6.57;2.88;;;8.10;79.30;;;;;;5114892;28;20385;-68
2022/03/29 08:52:47;;;;;;;5.40;2.85;;;8.20;79.20;;;;;;5114944;28;20035;-68
2022/03/29 08:55:12;;;;;;;5.22;2.53;;;8.30;79.10;;;;;;5114842;28;20036;-69
2022/03/29 08:57:38;;;;;;;5.00;2.42;;;8.40;78.90;;;;;;5096344;28;20526;-69
2022/03/29 09:00:06;;;;;;;5.55;2.83;;;8.50;78.70;;;;;;5114337;28;20067;-69
2022/03/29 09:02:35;;;;;;;4.82;2.65;;;8.60;78.40;;;;;;5114830;28;20036;-69
2022/03/29 09:05:12;;;;;;;5.68;2.50;;;8.70;78.40;;;;;;5114644;28;20036;-69
2022/03/29 09:07:52;;;;;;;5.20;2.60;;;8.80;78.20;;;;;;5096168;28;20043;-69
2022/03/29 09:10:19;;;;;;;4.93;2.50;;;8.90;78.00;;;;;;5114425;28;20457;-69
2022/03/29 09:12:45;;;;;;;4.63;2.38;;;9.00;77.70;;;;;;5114370;28;20044;-69
2022/03/29 09:15:12;;;;;;;4.38;2.50;;;9.00;77.70;;;;;;5078961;28;20040;-69
2022/03/29 09:17:41;;;;;;;4.95;2.60;;;9.10;77.60;;;;;;5114276;28;20032;-69
2022/03/29 09:20:10;;;;;;;5.70;2.70;;;9.10;77.70;;;;;;5114274;28;20050;-69
2022/03/29 09:22:46;;;;;;;4.85;2.40;;;9.20;77.60;;;;;;5114607;28;20039;-69
2022/03/29 09:25:16;;;;;;;6.70;3.22;;;9.30;77.50;;;;;;5114329;28;20453;-68
2022/03/29 09:28:00;;;;;;;6.18;2.78;;;9.30;77.50;;;;;;5113710;28;20077;-67
2022/03/29 09:30:38;;;;;;;7.53;3.20;;;9.30;77.50;;;;;;5111349;28;20134;-68
2022/03/29 09:33:07;;;;;;;5.30;2.78;;;9.30;77.50;;;;;;5114405;28;20035;-69
2022/03/29 09:35:57;;;;;;;6.05;3.03;;;9.30;77.40;;;;;;5114224;28;20071;-69
2022/03/29 09:38:36;;;;;;;5.47;2.75;;;9.40;77.50;;;;;;5113565;28;20036;-68
2022/03/29 09:41:03;;;;;;;5.72;2.80;;;9.60;77.30;;;;;;5097250;28;20059;-68
2022/03/29 09:43:31;;;;;;;5.75;2.90;;;9.80;76.80;;;;;;5114104;28;20500;-68
2022/03/29 09:46:00;;;;;;;5.68;3.00;;;9.80;76.50;;;;;;5095391;28;20035;-70
2022/03/29 09:48:34;;;;;;;6.32;3.15;;;9.80;76.70;;;;;;5113304;28;20492;-68
2022/03/29 09:51:18;;;;;;;7.93;3.03;;;9.80;76.80;;;;;;5113212;28;20059;-69
2022/03/29 09:53:51;;;;;;;6.40;3.35;;;10.00;76.80;;;;;;5113084;28;20058;-67
2022/03/29 09:56:24;;;;;;;5.30;2.85;;;10.00;76.60;;;;;;5113301;28;20036;-67
2022/03/29 09:59:04;;;;;;;5.75;2.85;;;10.20;76.30;;;;;;5112885;28;20142;-69
2022/03/29 10:01:30;;;;;;;5.20;2.55;;;10.40;76.00;;;;;;5113206;28;20480;-67
2022/03/29 10:03:57;;;;;;;4.28;2.40;;;10.50;75.70;;;;;;5113288;28;20396;-67
2022/03/29 10:06:23;;;;;;;4.40;2.80;;;10.60;75.50;;;;;;5094858;28;20420;-68
2022/03/29 10:11:32;;;;;;;5.63;3.10;;;10.60;75.30;;;;;;5112977;28;20048;-67
2022/03/29 10:13:57;;;;;;;6.05;2.72;;;10.70;75.60;;;;;;5094785;28;20035;-67
2022/03/29 10:16:23;;;;;;;5.47;2.85;;;10.80;75.40;;;;;;5094935;28;20381;-67
2022/03/29 10:18:49;;;;;;;5.68;2.83;;;10.80;75.30;;;;;;5113176;28;20046;-67
2022/03/29 10:21:16;;;;;;;5.78;2.80;;;10.90;75.30;;;;;;5112721;28;20083;-67
2022/03/29 10:23:45;;;;;;;5.50;2.97;;;10.90;75.20;;;;;;5113397;28;20115;-67
2022/03/29 10:26:16;;;;;;;6.47;3.25;;;10.90;75.30;;;;;;5112659;28;20040;-68
2022/03/29 10:28:42;;;;;;;5.00;2.67;;;10.90;75.50;;;;;;5112857;28;20031;-68
2022/03/29 10:31:29;;;;;;;4.95;2.70;;;10.90;75.60;;;;;;5113222;28;20040;-67
2022/03/29 10:34:12;;;;;;;5.10;2.70;;;11.00;75.50;;;;;;5112451;28;20044;-68
2022/03/29 10:36:59;;;;;;;5.47;2.60;;;11.10;75.20;;;;;;5113034;28;20062;-68
2022/03/29 10:39:50;;;;;;;4.68;2.67;;;11.30;75.10;;;;;;5094398;28;20114;-68
2022/03/29 10:42:30;;;;;;;;;;;11.30;74.90;;;;;;5113039;28;20039;-68
2022/03/29 10:45:10;;;;;;;6.78;2.80;;;11.30;75.00;;;;;;5112311;28;19912;-68
2022/03/29 10:47:37;;;;;;;4.20;2.28;;;11.30;75.00;;;;;;5112994;28;20051;-67
2022/03/29 10:50:06;;;;;;;4.88;2.40;;;11.30;74.70;;;;;;5112416;28;20035;-68
2022/03/29 10:52:40;;;;;;;6.72;3.17;;;11.40;74.90;;;;;;5113023;28;20131;-68
2022/03/29 10:55:17;;;;;;;5.32;2.67;;;11.40;74.70;;;;;;5112587;28;20493;-68
2022/03/29 10:58:04;;;;;;;5.40;2.92;;;11.60;74.60;;;;;;5089990;28;20036;-67
2022/03/29 11:00:31;;;;;;;5.75;3.00;;;11.60;74.40;;;;;;5113150;28;20016;-68
2022/03/29 11:03:25;;;;;;;5.90;3.10;;;11.80;74.30;;;;;;5112635;28;20043;-68
2022/03/29 11:06:06;;;;;;;6.30;2.95;;;11.90;74.10;;;;;;5110231;28;20085;-68
2022/03/29 11:08:32;;;;;;;4.75;2.28;;;12.10;73.80;;;;;;5112426;28;20073;-68
2022/03/29 11:10:59;;;;;;;4.20;2.35;;;12.10;73.70;;;;;;5113040;28;20110;-68
2022/03/29 11:13:28;;;;;;;5.13;2.85;;;12.20;73.40;;;;;;5115845;28;20063;-68
2022/03/29 11:16:00;;;;;;;6.18;3.00;;;12.30;73.20;;;;;;5115524;28;20047;-68
2022/03/29 11:18:38;;;;;;;5.22;3.00;;;12.40;73.00;;;;;;5115625;28;20044;-68
2022/03/29 11:21:05;;;;;;;4.80;2.40;;;12.40;73.60;;;;;;5116161;28;20048;-67
2022/03/29 11:23:33;;;;;;;4.85;2.67;;;12.40;72.90;;;;;;5115671;28;20067;-67
2022/03/29 11:26:14;;;;;;;5.72;2.72;;;12.30;73.00;;;;;;5115561;28;20071;-67
2022/03/29 11:28:56;;;;;;;5.03;2.67;;;12.40;73.00;;;;;;5115865;28;20092;-67
2022/03/29 11:31:24;;;;;;;5.47;3.08;;;12.30;73.00;;;;;;5115598;28;20043;-67
2022/03/29 11:33:51;;;;;;;4.65;2.75;;;12.30;73.10;;;;;;5115549;28;20040;-67
2022/03/29 11:36:19;;;;;;;4.53;2.70;;;12.50;73.00;;;;;;5095105;28;20051;-67
2022/03/29 11:38:45;;;;;;;5.25;2.55;;;12.60;72.70;;;;;;5097093;28;20062;-67
2022/03/29 11:41:26;;;;;;;4.53;2.42;;;12.70;72.50;;;;;;5115576;28;20040;-68
2022/03/29 11:43:54;;;;;;;5.50;2.97;;;12.70;72.30;;;;;;5115187;28;20104;-67
2022/03/29 11:46:20;;;;;;;5.15;2.72;;;12.70;72.30;;;;;;5115227;28;20077;-69
2022/03/29 11:48:49;;;;;;;5.35;3.13;;;12.70;72.20;;;;;;5115724;28;20036;-68
2022/03/29 11:51:16;;;;;;;5.60;3.28;;;12.90;71.70;;;;;;5115378;28;20092;-68
2022/03/29 11:53:42;;;;;;;4.75;2.72;;;12.90;71.70;;;;;;5115073;28;20059;-68
2022/03/29 11:56:13;;;;;;;6.30;3.47;;;12.90;71.60;;;;;;5115088;28;20046;-69
2022/03/29 11:58:45;;;;;;;5.30;3.05;;;13.00;71.40;;;;;;5115514;28;20126;-69
2022/03/29 12:01:13;;;;;;;4.97;2.88;;;13.20;71.10;;;;;;5115567;28;20046;-69
2022/03/29 12:03:43;;;;;;;5.32;3.33;;;13.20;70.90;;;;;;5115127;28;20123;-67
2022/03/29 12:06:12;;;;;;;6.72;3.25;;;13.30;70.80;;;;;;5115043;28;20043;-69
2022/03/29 12:08:57;;;;;;;5.72;3.40;;;13.30;70.70;;;;;;5114955;28;20488;-69
2022/03/29 12:11:34;;;;;;;5.45;2.92;;;13.30;70.60;;;;;;5114850;28;20044;-68
2022/03/29 12:14:16;;;;;;;5.32;2.92;;;13.50;70.50;;;;;;5114945;28;20044;-69
2022/03/29 12:16:44;;;;;;;5.40;3.25;;;13.60;70.50;;;;;;5114836;28;20040;-69
2022/03/29 12:19:12;;;;;;;5.28;3.08;;;13.60;70.00;;;;;;5097463;28;20040;-69
2022/03/29 12:21:39;;;;;;;5.45;3.33;;;13.70;69.80;;;;;;5114994;28;20435;-69
2022/03/29 12:24:07;;;;;;;5.03;3.03;;;13.80;69.60;;;;;;5114651;28;20039;-68
2022/03/29 12:26:38;;;;;;;5.53;3.28;;;14.00;69.40;;;;;;5114787;28;20044;-70
2022/03/29 12:29:08;;;;;;;5.28;3.20;;;14.10;69.10;;;;;;5114656;28;20071;-69
2022/03/29 12:31:36;;;;;;;6.07;3.75;;;14.20;68.70;;;;;;5079767;28;20087;-70
2022/03/29 12:34:02;;;;;;;6.68;3.33;;;14.30;68.50;;;;;;5114602;28;20092;-69
2022/03/29 12:36:28;;;;;;;5.28;3.15;;;14.30;68.40;;;;;;5114788;28;20067;-68
2022/03/29 12:38:59;;;;;;;5.30;3.30;;;14.50;68.40;;;;;;5114681;28;20090;-70
2022/03/29 12:41:41;;;;;;;5.65;3.45;;;14.60;68.00;;;;;;5114459;28;20059;-67
2022/03/29 12:44:10;;;;;;;5.85;3.42;;;14.50;68.00;;;;;;5095773;28;20496;-70
2022/03/29 12:46:39;;;;;;;5.28;3.00;;;14.60;67.90;;;;;;5096042;28;20039;-69
2022/03/29 12:49:06;;;;;;;4.95;3.08;;;14.70;67.70;;;;;;5096180;28;20058;-68
2022/03/29 12:51:34;;;;;;;4.10;2.30;;;14.70;67.60;;;;;;5094717;28;20047;-70
2022/03/29 12:54:04;;;;;;;4.13;2.50;;;14.80;67.50;;;;;;5113525;28;20127;-69
2022/03/29 12:56:40;;;;;;;4.75;2.80;;;14.80;67.40;;;;;;5114028;28;20469;-69
2022/03/29 12:59:36;;;;;;;5.63;3.10;;;15.00;67.20;;;;;;5114183;28;20047;-69
2022/03/29 13:02:12;;;;;;;4.82;2.88;;;14.90;67.00;;;;;;5094885;28;20540;-69
2022/03/29 13:04:40;;;;;;;3.95;2.40;;;15.00;67.00;;;;;;5114087;28;20070;-69
2022/03/29 13:07:07;;;;;;;5.03;2.58;;;14.70;67.20;;;;;;5114260;28;20157;-69
2022/03/29 13:09:35;;;;;;;2.90;2.03;;;14.70;67.50;;;;;;5114385;28;20381;-69
2022/03/29 13:12:09;;;;;;;4.00;2.40;;;14.80;67.40;;;;;;5114134;28;20432;-69